sensor_id;sensor_type;location;lat;lon;timestamp;temperature;humidity
65826;DHT22;52586;-43.152;172.732;2024-02-26T00:01:18;24.80;49.10
65826;DHT22;52586;-43.152;172.732;2024-02-26T00:03:49;24.80;49.20
65826;DHT22;52586;-43.152;172.732;2024-02-26T00:06:22;24.90;49.10
65826;DHT22;52586;-43.152;172.732;2024-02-26T00:08:52;24.90;49.20
65826;DHT22;52586;-43.152;172.732;2024-02-26T00:11:23;24.90;49.10
65826;DHT22;52586;-43.152;172.732;2024-02-26T00:13:54;24.90;49.10
65826;DHT22;52586;-43.152;172.732;2024-02-26T00:16:25;25.00;49.10
65826;DHT22;52586;-43.152;172.732;2024-02-26T00:18:56;25.00;49.10
65826;DHT22;52586;-43.152;172.732;2024-02-26T00:21:29;25.00;49.10
65826;DHT22;52586;-43.152;172.732;2024-02-26T00:23:59;25.00;49.10
65826;DHT22;52586;-43.152;172.732;2024-02-26T00:26:30;25.10;49.10
65826;DHT22;52586;-43.152;172.732;2024-02-26T00:29:01;25.10;49.00
65826;DHT22;52586;-43.152;172.732;2024-02-26T00:31:31;25.10;49.00
65826;DHT22;52586;-43.152;172.732;2024-02-26T00:34:02;25.10;49.00
65826;DHT22;52586;-43.152;172.732;2024-02-26T00:36:35;25.10;48.80
65826;DHT22;52586;-43.152;172.732;2024-02-26T00:39:05;25.20;48.80
65826;DHT22;52586;-43.152;172.732;2024-02-26T00:41:40;25.20;48.80
65826;DHT22;52586;-43.152;172.732;2024-02-26T00:44:10;25.20;48.80
65826;DHT22;52586;-43.152;172.732;2024-02-26T00:46:41;25.20;48.80
65826;DHT22;52586;-43.152;172.732;2024-02-26T00:49:12;25.30;48.80
65826;DHT22;52586;-43.152;172.732;2024-02-26T00:51:44;25.30;48.70
65826;DHT22;52586;-43.152;172.732;2024-02-26T00:54:15;25.30;48.60
65826;DHT22;52586;-43.152;172.732;2024-02-26T00:56:46;25.30;48.60
65826;DHT22;52586;-43.152;172.732;2024-02-26T00:59:16;25.30;48.50
65826;DHT22;52586;-43.152;172.732;2024-02-26T01:01:47;25.40;48.50
65826;DHT22;52586;-43.152;172.732;2024-02-26T01:04:17;25.40;48.50
65826;DHT22;52586;-43.152;172.732;2024-02-26T01:06:50;25.40;48.50
65826;DHT22;52586;-43.152;172.732;2024-02-26T01:09:21;25.40;48.50
65826;DHT22;52586;-43.152;172.732;2024-02-26T01:11:51;25.40;48.50
65826;DHT22;52586;-43.152;172.732;2024-02-26T01:14:22;25.50;48.50
65826;DHT22;52586;-43.152;172.732;2024-02-26T01:16:53;25.50;48.60
65826;DHT22;52586;-43.152;172.732;2024-02-26T01:19:23;25.50;48.50
65826;DHT22;52586;-43.152;172.732;2024-02-26T01:21:56;25.50;48.50
65826;DHT22;52586;-43.152;172.732;2024-02-26T01:24:26;25.60;48.50
65826;DHT22;52586;-43.152;172.732;2024-02-26T01:26:57;25.50;48.90
65826;DHT22;52586;-43.152;172.732;2024-02-26T01:29:28;25.60;48.40
65826;DHT22;52586;-43.152;172.732;2024-02-26T01:31:58;25.60;48.40
65826;DHT22;52586;-43.152;172.732;2024-02-26T01:34:29;25.60;48.40
65826;DHT22;52586;-43.152;172.732;2024-02-26T01:37:02;25.60;48.40
65826;DHT22;52586;-43.152;172.732;2024-02-26T01:39:32;25.60;48.40
65826;DHT22;52586;-43.152;172.732;2024-02-26T01:42:03;25.60;48.40
65826;DHT22;52586;-43.152;172.732;2024-02-26T01:44:34;25.60;48.40
65826;DHT22;52586;-43.152;172.732;2024-02-26T01:47:07;25.60;48.40
65826;DHT22;52586;-43.152;172.732;2024-02-26T01:49:38;25.70;48.40
65826;DHT22;52586;-43.152;172.732;2024-02-26T01:52:11;25.70;48.40
65826;DHT22;52586;-43.152;172.732;2024-02-26T01:54:42;25.80;48.50
65826;DHT22;52586;-43.152;172.732;2024-02-26T01:57:13;25.80;48.40
65826;DHT22;52586;-43.152;172.732;2024-02-26T01:59:44;25.80;48.50
65826;DHT22;52586;-43.152;172.732;2024-02-26T02:02:16;25.80;48.50
65826;DHT22;52586;-43.152;172.732;2024-02-26T02:04:47;25.90;48.50
65826;DHT22;52586;-43.152;172.732;2024-02-26T02:07:20;25.90;48.40
65826;DHT22;52586;-43.152;172.732;2024-02-26T02:09:52;25.80;48.40
65826;DHT22;52586;-43.152;172.732;2024-02-26T02:12:23;25.90;48.50
65826;DHT22;52586;-43.152;172.732;2024-02-26T02:14:54;25.90;48.50
65826;DHT22;52586;-43.152;172.732;2024-02-26T02:17:25;25.90;48.50
65826;DHT22;52586;-43.152;172.732;2024-02-26T02:19:57;25.90;48.60
65826;DHT22;52586;-43.152;172.732;2024-02-26T02:22:31;25.90;49.20
65826;DHT22;52586;-43.152;172.732;2024-02-26T02:25:02;25.90;48.60
65826;DHT22;52586;-43.152;172.732;2024-02-26T02:27:33;25.90;48.60
65826;DHT22;52586;-43.152;172.732;2024-02-26T02:30:04;25.90;48.60
65826;DHT22;52586;-43.152;172.732;2024-02-26T02:32:36;25.90;48.60
65826;DHT22;52586;-43.152;172.732;2024-02-26T02:35:08;25.90;48.60
65826;DHT22;52586;-43.152;172.732;2024-02-26T02:37:41;25.90;48.60
65826;DHT22;52586;-43.152;172.732;2024-02-26T02:40:12;26.00;48.60
65826;DHT22;52586;-43.152;172.732;2024-02-26T02:42:42;26.00;48.60
65826;DHT22;52586;-43.152;172.732;2024-02-26T02:45:13;26.00;48.60
65826;DHT22;52586;-43.152;172.732;2024-02-26T02:47:44;26.00;48.60
65826;DHT22;52586;-43.152;172.732;2024-02-26T02:50:14;26.00;48.50
65826;DHT22;52586;-43.152;172.732;2024-02-26T02:52:47;26.00;48.40
65826;DHT22;52586;-43.152;172.732;2024-02-26T02:55:18;26.10;48.50
65826;DHT22;52586;-43.152;172.732;2024-02-26T02:57:48;26.00;48.40
65826;DHT22;52586;-43.152;172.732;2024-02-26T03:00:19;26.10;48.50
65826;DHT22;52586;-43.152;172.732;2024-02-26T03:02:50;26.10;48.40
65826;DHT22;52586;-43.152;172.732;2024-02-26T03:05:21;26.10;48.40
65826;DHT22;52586;-43.152;172.732;2024-02-26T03:07:53;26.10;48.30
65826;DHT22;52586;-43.152;172.732;2024-02-26T03:10:24;26.10;48.30
65826;DHT22;52586;-43.152;172.732;2024-02-26T03:12:55;26.10;48.30
65826;DHT22;52586;-43.152;172.732;2024-02-26T03:15:26;26.10;48.30
65826;DHT22;52586;-43.152;172.732;2024-02-26T03:17:56;26.20;48.30
65826;DHT22;52586;-43.152;172.732;2024-02-26T03:20:27;26.20;48.30
65826;DHT22;52586;-43.152;172.732;2024-02-26T03:23:00;26.20;48.30
65826;DHT22;52586;-43.152;172.732;2024-02-26T03:25:30;26.10;48.20
65826;DHT22;52586;-43.152;172.732;2024-02-26T03:28:01;26.20;48.20
65826;DHT22;52586;-43.152;172.732;2024-02-26T03:30:31;26.20;48.30
65826;DHT22;52586;-43.152;172.732;2024-02-26T03:33:02;26.20;48.20
65826;DHT22;52586;-43.152;172.732;2024-02-26T03:35:33;26.20;48.20
65826;DHT22;52586;-43.152;172.732;2024-02-26T03:38:05;26.20;48.20
65826;DHT22;52586;-43.152;172.732;2024-02-26T03:40:36;26.20;48.20
65826;DHT22;52586;-43.152;172.732;2024-02-26T03:43:07;26.20;48.20
65826;DHT22;52586;-43.152;172.732;2024-02-26T03:45:37;26.20;48.20
65826;DHT22;52586;-43.152;172.732;2024-02-26T03:48:08;26.30;48.30
65826;DHT22;52586;-43.152;172.732;2024-02-26T03:50:39;26.30;48.30
65826;DHT22;52586;-43.152;172.732;2024-02-26T03:53:11;26.30;48.20
65826;DHT22;52586;-43.152;172.732;2024-02-26T03:55:42;26.30;48.20
65826;DHT22;52586;-43.152;172.732;2024-02-26T03:58:14;26.30;48.20
65826;DHT22;52586;-43.152;172.732;2024-02-26T04:00:45;26.30;48.10
65826;DHT22;52586;-43.152;172.732;2024-02-26T04:03:16;26.40;48.20
65826;DHT22;52586;-43.152;172.732;2024-02-26T04:05:47;26.40;48.20
65826;DHT22;52586;-43.152;172.732;2024-02-26T04:08:19;26.40;48.20
65826;DHT22;52586;-43.152;172.732;2024-02-26T04:10:50;26.40;48.10
65826;DHT22;52586;-43.152;172.732;2024-02-26T04:13:24;26.40;48.20
65826;DHT22;52586;-43.152;172.732;2024-02-26T04:15:54;26.40;48.10
65826;DHT22;52586;-43.152;172.732;2024-02-26T04:18:25;26.40;48.20
65826;DHT22;52586;-43.152;172.732;2024-02-26T04:20:56;26.40;48.10
65826;DHT22;52586;-43.152;172.732;2024-02-26T04:23:28;26.50;48.20
65826;DHT22;52586;-43.152;172.732;2024-02-26T04:25:59;26.50;48.20
65826;DHT22;52586;-43.152;172.732;2024-02-26T04:28:30;26.50;48.20
65826;DHT22;52586;-43.152;172.732;2024-02-26T04:31:00;26.50;48.20
65826;DHT22;52586;-43.152;172.732;2024-02-26T04:33:34;26.50;48.20
65826;DHT22;52586;-43.152;172.732;2024-02-26T04:36:05;26.50;48.10
65826;DHT22;52586;-43.152;172.732;2024-02-26T04:38:37;26.50;48.10
65826;DHT22;52586;-43.152;172.732;2024-02-26T04:41:08;26.50;48.10
65826;DHT22;52586;-43.152;172.732;2024-02-26T04:43:39;26.50;48.10
65826;DHT22;52586;-43.152;172.732;2024-02-26T04:46:11;26.60;48.10
65826;DHT22;52586;-43.152;172.732;2024-02-26T04:48:41;26.60;48.10
65826;DHT22;52586;-43.152;172.732;2024-02-26T04:51:14;26.50;48.00
65826;DHT22;52586;-43.152;172.732;2024-02-26T04:53:46;26.60;48.00
65826;DHT22;52586;-43.152;172.732;2024-02-26T04:56:17;26.60;48.00
65826;DHT22;52586;-43.152;172.732;2024-02-26T04:58:48;26.60;48.60
65826;DHT22;52586;-43.152;172.732;2024-02-26T05:01:18;26.60;48.00
65826;DHT22;52586;-43.152;172.732;2024-02-26T05:03:49;26.60;48.00
65826;DHT22;52586;-43.152;172.732;2024-02-26T05:06:20;26.70;48.00
65826;DHT22;52586;-43.152;172.732;2024-02-26T05:08:52;26.70;48.00
65826;DHT22;52586;-43.152;172.732;2024-02-26T05:11:23;26.70;48.00
65826;DHT22;52586;-43.152;172.732;2024-02-26T05:13:54;26.70;47.90
65826;DHT22;52586;-43.152;172.732;2024-02-26T05:16:24;26.80;48.00
65826;DHT22;52586;-43.152;172.732;2024-02-26T05:18:55;26.70;47.90
65826;DHT22;52586;-43.152;172.732;2024-02-26T05:21:26;26.80;47.90
65826;DHT22;52586;-43.152;172.732;2024-02-26T05:23:58;26.80;47.90
65826;DHT22;52586;-43.152;172.732;2024-02-26T05:26:29;26.80;47.90
65826;DHT22;52586;-43.152;172.732;2024-02-26T05:28:59;26.90;47.90
65826;DHT22;52586;-43.152;172.732;2024-02-26T05:31:30;26.90;47.90
65826;DHT22;52586;-43.152;172.732;2024-02-26T05:34:01;26.90;47.90
65826;DHT22;52586;-43.152;172.732;2024-02-26T05:36:31;26.90;47.90
65826;DHT22;52586;-43.152;172.732;2024-02-26T05:39:04;26.90;47.90
65826;DHT22;52586;-43.152;172.732;2024-02-26T05:41:35;26.90;47.80
65826;DHT22;52586;-43.152;172.732;2024-02-26T05:44:06;26.90;47.70
65826;DHT22;52586;-43.152;172.732;2024-02-26T05:46:38;26.90;47.70
65826;DHT22;52586;-43.152;172.732;2024-02-26T05:49:09;26.90;47.70
65826;DHT22;52586;-43.152;172.732;2024-02-26T05:51:40;26.90;47.60
65826;DHT22;52586;-43.152;172.732;2024-02-26T05:54:13;26.90;47.60
65826;DHT22;52586;-43.152;172.732;2024-02-26T05:56:43;26.90;47.50
65826;DHT22;52586;-43.152;172.732;2024-02-26T05:59:14;26.90;47.50
65826;DHT22;52586;-43.152;172.732;2024-02-26T06:01:45;26.90;47.50
65826;DHT22;52586;-43.152;172.732;2024-02-26T06:04:15;26.90;47.50
65826;DHT22;52586;-43.152;172.732;2024-02-26T06:06:46;26.90;47.50
65826;DHT22;52586;-43.152;172.732;2024-02-26T06:09:19;26.80;47.40
65826;DHT22;52586;-43.152;172.732;2024-02-26T06:11:50;26.90;47.50
65826;DHT22;52586;-43.152;172.732;2024-02-26T06:14:20;26.90;48.10
65826;DHT22;52586;-43.152;172.732;2024-02-26T06:16:51;26.80;47.40
65826;DHT22;52586;-43.152;172.732;2024-02-26T06:19:22;26.80;47.40
65826;DHT22;52586;-43.152;172.732;2024-02-26T06:21:52;26.80;47.50
65826;DHT22;52586;-43.152;172.732;2024-02-26T06:24:25;26.80;47.50
65826;DHT22;52586;-43.152;172.732;2024-02-26T06:26:55;26.80;47.40
65826;DHT22;52586;-43.152;172.732;2024-02-26T06:29:26;26.80;47.40
65826;DHT22;52586;-43.152;172.732;2024-02-26T06:31:57;26.80;47.40
65826;DHT22;52586;-43.152;172.732;2024-02-26T06:34:27;26.80;47.40
65826;DHT22;52586;-43.152;172.732;2024-02-26T06:36:58;26.80;47.40
65826;DHT22;52586;-43.152;172.732;2024-02-26T06:39:30;26.70;47.30
65826;DHT22;52586;-43.152;172.732;2024-02-26T06:42:01;26.70;47.30
65826;DHT22;52586;-43.152;172.732;2024-02-26T06:44:32;26.80;47.40
65826;DHT22;52586;-43.152;172.732;2024-02-26T06:47:02;26.70;47.40
65826;DHT22;52586;-43.152;172.732;2024-02-26T06:49:33;26.70;47.30
65826;DHT22;52586;-43.152;172.732;2024-02-26T06:52:04;26.70;47.40
65826;DHT22;52586;-43.152;172.732;2024-02-26T06:54:37;26.70;47.30
65826;DHT22;52586;-43.152;172.732;2024-02-26T06:57:07;26.60;47.30
65826;DHT22;52586;-43.152;172.732;2024-02-26T06:59:38;26.60;47.30
65826;DHT22;52586;-43.152;172.732;2024-02-26T07:02:13;26.60;47.30
65826;DHT22;52586;-43.152;172.732;2024-02-26T07:04:44;26.60;47.30
65826;DHT22;52586;-43.152;172.732;2024-02-26T07:07:15;26.60;47.30
65826;DHT22;52586;-43.152;172.732;2024-02-26T07:09:47;26.50;47.30
65826;DHT22;52586;-43.152;172.732;2024-02-26T07:12:21;26.60;47.30
65826;DHT22;52586;-43.152;172.732;2024-02-26T07:14:52;26.60;47.40
65826;DHT22;52586;-43.152;172.732;2024-02-26T07:17:22;26.50;47.30
65826;DHT22;52586;-43.152;172.732;2024-02-26T07:19:53;26.50;47.30
65826;DHT22;52586;-43.152;172.732;2024-02-26T07:22:24;26.50;47.30
65826;DHT22;52586;-43.152;172.732;2024-02-26T07:24:56;26.50;47.30
65826;DHT22;52586;-43.152;172.732;2024-02-26T07:27:27;26.50;47.30
65826;DHT22;52586;-43.152;172.732;2024-02-26T07:29:57;26.50;47.30
65826;DHT22;52586;-43.152;172.732;2024-02-26T07:32:28;26.50;47.30
65826;DHT22;52586;-43.152;172.732;2024-02-26T07:34:57;26.40;47.30
65826;DHT22;52586;-43.152;172.732;2024-02-26T07:37:28;26.50;47.30
65826;DHT22;52586;-43.152;172.732;2024-02-26T07:40:00;26.40;47.20
65826;DHT22;52586;-43.152;172.732;2024-02-26T07:42:31;26.50;47.30
65826;DHT22;52586;-43.152;172.732;2024-02-26T07:45:02;26.40;47.30
65826;DHT22;52586;-43.152;172.732;2024-02-26T07:47:33;26.40;47.30
65826;DHT22;52586;-43.152;172.732;2024-02-26T07:50:06;26.40;47.30
65826;DHT22;52586;-43.152;172.732;2024-02-26T07:52:36;26.40;47.30
65826;DHT22;52586;-43.152;172.732;2024-02-26T07:55:09;26.40;47.30
65826;DHT22;52586;-43.152;172.732;2024-02-26T07:57:43;26.30;47.30
65826;DHT22;52586;-43.152;172.732;2024-02-26T08:00:14;26.30;47.30
65826;DHT22;52586;-43.152;172.732;2024-02-26T08:02:45;26.30;47.30
65826;DHT22;52586;-43.152;172.732;2024-02-26T08:05:16;26.30;47.30
65826;DHT22;52586;-43.152;172.732;2024-02-26T08:07:47;26.30;47.30
65826;DHT22;52586;-43.152;172.732;2024-02-26T08:10:20;26.30;47.30
65826;DHT22;52586;-43.152;172.732;2024-02-26T08:12:50;26.30;47.30
65826;DHT22;52586;-43.152;172.732;2024-02-26T08:15:21;26.30;47.30
65826;DHT22;52586;-43.152;172.732;2024-02-26T08:17:52;26.30;47.30
65826;DHT22;52586;-43.152;172.732;2024-02-26T08:20:22;26.20;47.20
65826;DHT22;52586;-43.152;172.732;2024-02-26T08:22:53;26.20;47.30
65826;DHT22;52586;-43.152;172.732;2024-02-26T08:25:25;26.20;47.30
65826;DHT22;52586;-43.152;172.732;2024-02-26T08:27:56;26.20;47.30
65826;DHT22;52586;-43.152;172.732;2024-02-26T08:30:27;26.20;47.40
65826;DHT22;52586;-43.152;172.732;2024-02-26T08:32:57;26.20;47.40
65826;DHT22;52586;-43.152;172.732;2024-02-26T08:35:28;26.20;47.50
65826;DHT22;52586;-43.152;172.732;2024-02-26T08:37:59;26.20;47.60
65826;DHT22;52586;-43.152;172.732;2024-02-26T08:40:31;26.20;47.70
65826;DHT22;52586;-43.152;172.732;2024-02-26T08:43:02;26.20;47.70
65826;DHT22;52586;-43.152;172.732;2024-02-26T08:45:32;26.10;47.70
65826;DHT22;52586;-43.152;172.732;2024-02-26T08:48:03;26.10;47.80
65826;DHT22;52586;-43.152;172.732;2024-02-26T08:50:34;26.10;47.80
65826;DHT22;52586;-43.152;172.732;2024-02-26T08:53:05;26.10;47.80
65826;DHT22;52586;-43.152;172.732;2024-02-26T08:55:37;26.20;48.00
65826;DHT22;52586;-43.152;172.732;2024-02-26T08:58:08;26.10;47.90
65826;DHT22;52586;-43.152;172.732;2024-02-26T09:00:38;26.10;47.70
65826;DHT22;52586;-43.152;172.732;2024-02-26T09:03:09;26.00;47.40
65826;DHT22;52586;-43.152;172.732;2024-02-26T09:05:40;26.00;47.30
65826;DHT22;52586;-43.152;172.732;2024-02-26T09:08:10;26.00;47.60
65826;DHT22;52586;-43.152;172.732;2024-02-26T09:10:43;26.00;47.10
65826;DHT22;52586;-43.152;172.732;2024-02-26T09:13:14;25.90;47.00
65826;DHT22;52586;-43.152;172.732;2024-02-26T09:15:44;25.90;46.90
65826;DHT22;52586;-43.152;172.732;2024-02-26T09:18:15;25.90;46.90
65826;DHT22;52586;-43.152;172.732;2024-02-26T09:20:46;25.80;46.80
65826;DHT22;52586;-43.152;172.732;2024-02-26T09:23:16;25.80;46.80
65826;DHT22;52586;-43.152;172.732;2024-02-26T09:25:49;25.80;46.90
65826;DHT22;52586;-43.152;172.732;2024-02-26T09:28:19;25.80;47.00
65826;DHT22;52586;-43.152;172.732;2024-02-26T09:30:50;25.70;47.10
65826;DHT22;52586;-43.152;172.732;2024-02-26T09:33:22;25.70;47.40
65826;DHT22;52586;-43.152;172.732;2024-02-26T09:35:52;25.70;47.50
65826;DHT22;52586;-43.152;172.732;2024-02-26T09:38:23;25.70;47.50
65826;DHT22;52586;-43.152;172.732;2024-02-26T09:40:56;25.60;47.40
65826;DHT22;52586;-43.152;172.732;2024-02-26T09:43:30;25.60;47.50
65826;DHT22;52586;-43.152;172.732;2024-02-26T09:46:04;25.60;47.60
65826;DHT22;52586;-43.152;172.732;2024-02-26T09:48:35;25.50;47.70
65826;DHT22;52586;-43.152;172.732;2024-02-26T09:51:06;25.50;48.00
65826;DHT22;52586;-43.152;172.732;2024-02-26T09:53:38;25.50;48.20
65826;DHT22;52586;-43.152;172.732;2024-02-26T09:56:12;25.50;48.20
65826;DHT22;52586;-43.152;172.732;2024-02-26T09:58:43;25.50;48.20
65826;DHT22;52586;-43.152;172.732;2024-02-26T10:01:18;25.50;48.20
65826;DHT22;52586;-43.152;172.732;2024-02-26T10:03:55;25.40;48.10
65826;DHT22;52586;-43.152;172.732;2024-02-26T10:06:27;25.40;48.10
65826;DHT22;52586;-43.152;172.732;2024-02-26T10:08:58;25.40;48.30
65826;DHT22;52586;-43.152;172.732;2024-02-26T10:11:31;25.40;48.30
65826;DHT22;52586;-43.152;172.732;2024-02-26T10:14:02;25.30;48.40
65826;DHT22;52586;-43.152;172.732;2024-02-26T10:16:33;25.30;48.30
65826;DHT22;52586;-43.152;172.732;2024-02-26T10:19:04;25.30;48.20
65826;DHT22;52586;-43.152;172.732;2024-02-26T10:21:34;25.30;48.20
65826;DHT22;52586;-43.152;172.732;2024-02-26T10:24:07;25.30;48.30
65826;DHT22;52586;-43.152;172.732;2024-02-26T10:26:50;25.30;48.20
65826;DHT22;52586;-43.152;172.732;2024-02-26T10:29:21;25.20;48.10
65826;DHT22;52586;-43.152;172.732;2024-02-26T10:31:52;25.20;48.10
65826;DHT22;52586;-43.152;172.732;2024-02-26T10:34:23;25.20;48.20
65826;DHT22;52586;-43.152;172.732;2024-02-26T10:36:55;25.10;48.30
65826;DHT22;52586;-43.152;172.732;2024-02-26T10:39:25;25.10;48.40
65826;DHT22;52586;-43.152;172.732;2024-02-26T10:41:58;25.10;48.50
65826;DHT22;52586;-43.152;172.732;2024-02-26T10:44:34;25.10;48.50
65826;DHT22;52586;-43.152;172.732;2024-02-26T10:47:05;25.10;48.50
65826;DHT22;52586;-43.152;172.732;2024-02-26T10:49:36;25.10;48.40
65826;DHT22;52586;-43.152;172.732;2024-02-26T10:52:08;25.10;48.30
65826;DHT22;52586;-43.152;172.732;2024-02-26T10:54:42;25.00;48.20
65826;DHT22;52586;-43.152;172.732;2024-02-26T10:57:16;25.00;48.20
65826;DHT22;52586;-43.152;172.732;2024-02-26T10:59:49;25.00;48.20
65826;DHT22;52586;-43.152;172.732;2024-02-26T11:02:21;25.00;48.20
65826;DHT22;52586;-43.152;172.732;2024-02-26T11:04:52;25.00;48.20
65826;DHT22;52586;-43.152;172.732;2024-02-26T11:07:24;24.90;48.20
65826;DHT22;52586;-43.152;172.732;2024-02-26T11:09:56;24.90;48.20
65826;DHT22;52586;-43.152;172.732;2024-02-26T11:12:30;24.90;48.20
65826;DHT22;52586;-43.152;172.732;2024-02-26T11:15:03;24.90;48.20
65826;DHT22;52586;-43.152;172.732;2024-02-26T11:17:35;24.90;48.20
65826;DHT22;52586;-43.152;172.732;2024-02-26T11:20:11;24.90;48.30
65826;DHT22;52586;-43.152;172.732;2024-02-26T11:22:42;24.90;48.30
65826;DHT22;52586;-43.152;172.732;2024-02-26T11:25:13;24.90;48.30
65826;DHT22;52586;-43.152;172.732;2024-02-26T11:27:49;24.90;48.30
65826;DHT22;52586;-43.152;172.732;2024-02-26T11:30:21;24.90;48.40
65826;DHT22;52586;-43.152;172.732;2024-02-26T11:32:53;24.90;48.30
65826;DHT22;52586;-43.152;172.732;2024-02-26T11:35:25;24.80;48.30
65826;DHT22;52586;-43.152;172.732;2024-02-26T11:37:56;24.80;48.30
65826;DHT22;52586;-43.152;172.732;2024-02-26T11:40:29;24.80;48.30
65826;DHT22;52586;-43.152;172.732;2024-02-26T11:43:03;24.80;48.30
65826;DHT22;52586;-43.152;172.732;2024-02-26T11:45:52;24.80;48.30
65826;DHT22;52586;-43.152;172.732;2024-02-26T11:48:25;24.70;48.20
65826;DHT22;52586;-43.152;172.732;2024-02-26T11:50:56;24.70;48.20
65826;DHT22;52586;-43.152;172.732;2024-02-26T11:53:28;24.70;48.20
65826;DHT22;52586;-43.152;172.732;2024-02-26T11:56:24;24.70;48.30
65826;DHT22;52586;-43.152;172.732;2024-02-26T11:59:04;24.70;48.30
65826;DHT22;52586;-43.152;172.732;2024-02-26T12:01:44;24.70;48.30
65826;DHT22;52586;-43.152;172.732;2024-02-26T12:04:18;24.70;48.30
65826;DHT22;52586;-43.152;172.732;2024-02-26T12:06:51;24.60;48.30
65826;DHT22;52586;-43.152;172.732;2024-02-26T12:09:37;24.60;48.40
65826;DHT22;52586;-43.152;172.732;2024-02-26T12:12:08;24.60;48.40
65826;DHT22;52586;-43.152;172.732;2024-02-26T12:14:50;24.60;48.40
65826;DHT22;52586;-43.152;172.732;2024-02-26T12:17:22;24.60;48.40
65826;DHT22;52586;-43.152;172.732;2024-02-26T12:19:53;24.60;48.40
65826;DHT22;52586;-43.152;172.732;2024-02-26T12:22:24;24.60;48.50
65826;DHT22;52586;-43.152;172.732;2024-02-26T12:25:00;24.60;48.40
65826;DHT22;52586;-43.152;172.732;2024-02-26T12:27:30;24.50;48.40
65826;DHT22;52586;-43.152;172.732;2024-02-26T12:30:03;24.50;48.40
65826;DHT22;52586;-43.152;172.732;2024-02-26T12:32:35;24.50;48.40
65826;DHT22;52586;-43.152;172.732;2024-02-26T12:35:07;24.50;48.40
65826;DHT22;52586;-43.152;172.732;2024-02-26T12:37:37;24.50;48.40
65826;DHT22;52586;-43.152;172.732;2024-02-26T12:40:10;24.50;48.40
65826;DHT22;52586;-43.152;172.732;2024-02-26T12:42:41;24.50;48.40
65826;DHT22;52586;-43.152;172.732;2024-02-26T12:45:14;24.40;48.30
65826;DHT22;52586;-43.152;172.732;2024-02-26T12:47:45;24.40;48.30
65826;DHT22;52586;-43.152;172.732;2024-02-26T12:50:17;24.40;48.30
65826;DHT22;52586;-43.152;172.732;2024-02-26T12:52:48;24.40;48.40
65826;DHT22;52586;-43.152;172.732;2024-02-26T12:55:21;24.40;48.40
65826;DHT22;52586;-43.152;172.732;2024-02-26T12:57:52;24.40;48.50
65826;DHT22;52586;-43.152;172.732;2024-02-26T13:00:25;24.40;48.40
65826;DHT22;52586;-43.152;172.732;2024-02-26T13:02:57;24.40;48.60
65826;DHT22;52586;-43.152;172.732;2024-02-26T13:05:30;24.30;48.50
65826;DHT22;52586;-43.152;172.732;2024-02-26T13:08:01;24.30;48.50
65826;DHT22;52586;-43.152;172.732;2024-02-26T13:10:33;24.30;48.50
65826;DHT22;52586;-43.152;172.732;2024-02-26T13:13:04;24.30;48.50
65826;DHT22;52586;-43.152;172.732;2024-02-26T13:15:38;24.30;48.50
65826;DHT22;52586;-43.152;172.732;2024-02-26T13:18:12;24.30;48.50
65826;DHT22;52586;-43.152;172.732;2024-02-26T13:20:43;24.30;48.40
65826;DHT22;52586;-43.152;172.732;2024-02-26T13:23:14;24.30;48.40
65826;DHT22;52586;-43.152;172.732;2024-02-26T13:25:44;24.20;48.40
65826;DHT22;52586;-43.152;172.732;2024-02-26T13:28:16;24.20;48.40
65826;DHT22;52586;-43.152;172.732;2024-02-26T13:30:54;24.20;48.40
65826;DHT22;52586;-43.152;172.732;2024-02-26T13:33:25;24.20;48.50
65826;DHT22;52586;-43.152;172.732;2024-02-26T13:35:57;24.20;48.40
65826;DHT22;52586;-43.152;172.732;2024-02-26T13:38:28;24.20;48.40
65826;DHT22;52586;-43.152;172.732;2024-02-26T13:40:59;24.20;48.40
65826;DHT22;52586;-43.152;172.732;2024-02-26T13:43:30;24.20;48.50
65826;DHT22;52586;-43.152;172.732;2024-02-26T13:46:03;24.10;48.50
65826;DHT22;52586;-43.152;172.732;2024-02-26T13:48:34;24.10;48.50
65826;DHT22;52586;-43.152;172.732;2024-02-26T13:51:05;24.10;48.50
65826;DHT22;52586;-43.152;172.732;2024-02-26T13:53:35;24.10;48.60
65826;DHT22;52586;-43.152;172.732;2024-02-26T13:56:06;24.10;48.60
65826;DHT22;52586;-43.152;172.732;2024-02-26T13:58:37;24.10;48.60
65826;DHT22;52586;-43.152;172.732;2024-02-26T14:01:10;24.10;48.60
65826;DHT22;52586;-43.152;172.732;2024-02-26T14:03:40;24.10;48.60
65826;DHT22;52586;-43.152;172.732;2024-02-26T14:06:11;24.00;48.60
65826;DHT22;52586;-43.152;172.732;2024-02-26T14:08:42;24.00;48.50
65826;DHT22;52586;-43.152;172.732;2024-02-26T14:11:12;24.00;48.50
65826;DHT22;52586;-43.152;172.732;2024-02-26T14:13:43;24.00;48.60
65826;DHT22;52586;-43.152;172.732;2024-02-26T14:16:17;24.00;48.50
65826;DHT22;52586;-43.152;172.732;2024-02-26T14:18:48;24.00;48.60
65826;DHT22;52586;-43.152;172.732;2024-02-26T14:21:18;24.00;48.50
65826;DHT22;52586;-43.152;172.732;2024-02-26T14:23:49;23.90;48.50
65826;DHT22;52586;-43.152;172.732;2024-02-26T14:26:19;23.90;48.50
65826;DHT22;52586;-43.152;172.732;2024-02-26T14:28:50;23.90;48.50
65826;DHT22;52586;-43.152;172.732;2024-02-26T14:31:23;23.90;48.50
65826;DHT22;52586;-43.152;172.732;2024-02-26T14:33:53;23.90;48.50
65826;DHT22;52586;-43.152;172.732;2024-02-26T14:36:24;23.90;48.50
65826;DHT22;52586;-43.152;172.732;2024-02-26T14:38:55;23.80;48.50
65826;DHT22;52586;-43.152;172.732;2024-02-26T14:41:26;23.80;48.60
65826;DHT22;52586;-43.152;172.732;2024-02-26T14:43:56;23.80;48.50
65826;DHT22;52586;-43.152;172.732;2024-02-26T14:46:29;23.80;48.60
65826;DHT22;52586;-43.152;172.732;2024-02-26T14:48:59;23.80;48.60
65826;DHT22;52586;-43.152;172.732;2024-02-26T14:51:30;23.80;48.60
65826;DHT22;52586;-43.152;172.732;2024-02-26T14:54:01;23.80;48.60
65826;DHT22;52586;-43.152;172.732;2024-02-26T14:56:31;23.80;48.60
65826;DHT22;52586;-43.152;172.732;2024-02-26T14:59:02;23.80;48.50
65826;DHT22;52586;-43.152;172.732;2024-02-26T15:01:35;23.80;48.50
65826;DHT22;52586;-43.152;172.732;2024-02-26T15:04:05;23.80;48.50
65826;DHT22;52586;-43.152;172.732;2024-02-26T15:06:38;23.70;48.50
65826;DHT22;52586;-43.152;172.732;2024-02-26T15:09:09;23.70;48.50
65826;DHT22;52586;-43.152;172.732;2024-02-26T15:11:40;23.70;48.50
65826;DHT22;52586;-43.152;172.732;2024-02-26T15:14:11;23.70;48.50